METAR EDWI 220350Z AUTO 35001KT 4800 HZ BKN050 M02/M05 Q1027=

Die Wetterinformationen haben nur informativen Charakter
und dürfen nicht zum Zwecke der Flugplanung benutzt werden.

StartseiteAktuellesyourways Flugpläne WHV

Hier die aktuellen Flugpläne von yourways als pdf-Download

Flugpläne (pdf 940 Kb)

Go to top